sensor_id;sensor_type;location;lat;lon;timestamp;P1;durP1;ratioP1;P2;durP2;ratioP2
23449;SDS011;11897;45.438;12.128;2023-04-24T00:00:59;7.23;;;4.20;;
23449;SDS011;11897;45.438;12.128;2023-04-24T00:03:27;6.80;;;4.03;;
23449;SDS011;11897;45.438;12.128;2023-04-24T00:05:54;6.63;;;4.27;;
23449;SDS011;11897;45.438;12.128;2023-04-24T00:08:21;9.03;;;4.73;;
23449;SDS011;11897;45.438;12.128;2023-04-24T00:10:47;6.60;;;3.63;;
23449;SDS011;11897;45.438;12.128;2023-04-24T00:13:15;7.83;;;4.40;;
23449;SDS011;11897;45.438;12.128;2023-04-24T00:15:42;5.27;;;3.77;;
23449;SDS011;11897;45.438;12.128;2023-04-24T00:18:09;6.57;;;3.50;;
23449;SDS011;11897;45.438;12.128;2023-04-24T00:20:35;15.07;;;4.33;;
23449;SDS011;11897;45.438;12.128;2023-04-24T00:23:02;8.90;;;3.97;;
23449;SDS011;11897;45.438;12.128;2023-04-24T00:25:29;11.03;;;4.57;;
23449;SDS011;11897;45.438;12.128;2023-04-24T00:27:55;6.07;;;3.97;;
23449;SDS011;11897;45.438;12.128;2023-04-24T00:30:23;6.50;;;3.53;;
23449;SDS011;11897;45.438;12.128;2023-04-24T00:32:50;6.50;;;3.70;;
23449;SDS011;11897;45.438;12.128;2023-04-24T00:35:16;6.47;;;3.23;;
23449;SDS011;11897;45.438;12.128;2023-04-24T00:37:45;7.80;;;2.93;;
23449;SDS011;11897;45.438;12.128;2023-04-24T00:40:12;3.57;;;2.90;;
23449;SDS011;11897;45.438;12.128;2023-04-24T00:42:38;7.20;;;4.03;;
23449;SDS011;11897;45.438;12.128;2023-04-24T00:45:06;5.57;;;3.40;;
23449;SDS011;11897;45.438;12.128;2023-04-24T00:47:34;7.40;;;3.50;;
23449;SDS011;11897;45.438;12.128;2023-04-24T00:50:01;6.53;;;3.33;;
23449;SDS011;11897;45.438;12.128;2023-04-24T00:52:28;6.83;;;4.00;;
23449;SDS011;11897;45.438;12.128;2023-04-24T00:54:56;5.73;;;3.23;;
23449;SDS011;11897;45.438;12.128;2023-04-24T00:57:23;6.77;;;3.53;;
23449;SDS011;11897;45.438;12.128;2023-04-24T00:59:50;6.30;;;3.70;;
23449;SDS011;11897;45.438;12.128;2023-04-24T01:02:18;4.77;;;3.23;;
23449;SDS011;11897;45.438;12.128;2023-04-24T01:04:47;6.43;;;2.83;;
23449;SDS011;11897;45.438;12.128;2023-04-24T01:07:14;8.57;;;3.60;;
23449;SDS011;11897;45.438;12.128;2023-04-24T01:09:41;4.30;;;3.00;;
23449;SDS011;11897;45.438;12.128;2023-04-24T01:12:08;5.60;;;3.53;;
23449;SDS011;11897;45.438;12.128;2023-04-24T01:14:36;10.27;;;3.87;;
23449;SDS011;11897;45.438;12.128;2023-04-24T01:17:03;4.90;;;3.60;;
23449;SDS011;11897;45.438;12.128;2023-04-24T01:19:31;5.43;;;3.53;;
23449;SDS011;11897;45.438;12.128;2023-04-24T01:21:59;7.27;;;3.73;;
23449;SDS011;11897;45.438;12.128;2023-04-24T01:24:29;6.07;;;3.87;;
23449;SDS011;11897;45.438;12.128;2023-04-24T01:26:56;5.27;;;3.63;;
23449;SDS011;11897;45.438;12.128;2023-04-24T01:29:23;4.10;;;3.00;;
23449;SDS011;11897;45.438;12.128;2023-04-24T01:31:50;8.33;;;4.50;;
23449;SDS011;11897;45.438;12.128;2023-04-24T01:34:17;5.43;;;3.03;;
23449;SDS011;11897;45.438;12.128;2023-04-24T01:36:44;5.93;;;3.47;;
23449;SDS011;11897;45.438;12.128;2023-04-24T01:39:12;5.90;;;3.43;;
23449;SDS011;11897;45.438;12.128;2023-04-24T01:41:40;5.80;;;3.33;;
23449;SDS011;11897;45.438;12.128;2023-04-24T01:44:07;11.00;;;3.43;;
23449;SDS011;11897;45.438;12.128;2023-04-24T01:46:34;6.33;;;3.20;;
23449;SDS011;11897;45.438;12.128;2023-04-24T01:49:03;8.70;;;3.83;;
23449;SDS011;11897;45.438;12.128;2023-04-24T01:51:29;11.63;;;4.77;;
23449;SDS011;11897;45.438;12.128;2023-04-24T01:53:56;6.30;;;3.90;;
23449;SDS011;11897;45.438;12.128;2023-04-24T01:56:23;6.40;;;3.70;;
23449;SDS011;11897;45.438;12.128;2023-04-24T01:58:53;7.63;;;3.43;;
23449;SDS011;11897;45.438;12.128;2023-04-24T02:01:21;5.13;;;3.40;;
23449;SDS011;11897;45.438;12.128;2023-04-24T02:03:49;9.90;;;4.03;;
23449;SDS011;11897;45.438;12.128;2023-04-24T02:06:15;6.47;;;3.50;;
23449;SDS011;11897;45.438;12.128;2023-04-24T02:08:42;6.27;;;3.83;;
23449;SDS011;11897;45.438;12.128;2023-04-24T02:11:09;7.33;;;3.63;;
23449;SDS011;11897;45.438;12.128;2023-04-24T02:13:35;11.27;;;4.37;;
23449;SDS011;11897;45.438;12.128;2023-04-24T02:16:03;7.90;;;3.93;;
23449;SDS011;11897;45.438;12.128;2023-04-24T02:18:30;6.37;;;4.30;;
23449;SDS011;11897;45.438;12.128;2023-04-24T02:20:57;6.67;;;3.93;;
23449;SDS011;11897;45.438;12.128;2023-04-24T02:23:23;5.90;;;3.83;;
23449;SDS011;11897;45.438;12.128;2023-04-24T02:25:50;6.43;;;4.00;;
23449;SDS011;11897;45.438;12.128;2023-04-24T02:28:18;7.83;;;3.87;;
23449;SDS011;11897;45.438;12.128;2023-04-24T02:30:45;7.73;;;4.57;;
23449;SDS011;11897;45.438;12.128;2023-04-24T02:33:13;8.37;;;3.97;;
23449;SDS011;11897;45.438;12.128;2023-04-24T02:35:39;7.17;;;4.33;;
23449;SDS011;11897;45.438;12.128;2023-04-24T02:38:06;9.33;;;4.97;;
23449;SDS011;11897;45.438;12.128;2023-04-24T02:40:35;7.53;;;3.87;;
23449;SDS011;11897;45.438;12.128;2023-04-24T02:43:01;7.07;;;4.30;;
23449;SDS011;11897;45.438;12.128;2023-04-24T02:45:29;6.57;;;4.37;;
23449;SDS011;11897;45.438;12.128;2023-04-24T02:47:55;9.87;;;4.37;;
23449;SDS011;11897;45.438;12.128;2023-04-24T02:50:23;5.87;;;3.53;;
23449;SDS011;11897;45.438;12.128;2023-04-24T02:52:50;6.93;;;4.50;;
23449;SDS011;11897;45.438;12.128;2023-04-24T02:55:17;5.73;;;4.10;;
23449;SDS011;11897;45.438;12.128;2023-04-24T02:57:44;8.67;;;4.03;;
23449;SDS011;11897;45.438;12.128;2023-04-24T03:00:11;7.73;;;4.87;;
23449;SDS011;11897;45.438;12.128;2023-04-24T03:02:38;9.77;;;4.20;;
23449;SDS011;11897;45.438;12.128;2023-04-24T03:05:05;7.90;;;3.50;;
23449;SDS011;11897;45.438;12.128;2023-04-24T03:07:34;5.57;;;3.47;;
23449;SDS011;11897;45.438;12.128;2023-04-24T03:10:00;7.83;;;3.93;;
23449;SDS011;11897;45.438;12.128;2023-04-24T03:12:27;7.53;;;4.33;;
23449;SDS011;11897;45.438;12.128;2023-04-24T03:14:54;10.17;;;4.70;;
23449;SDS011;11897;45.438;12.128;2023-04-24T03:17:20;7.17;;;3.50;;
23449;SDS011;11897;45.438;12.128;2023-04-24T03:19:47;8.33;;;3.93;;
23449;SDS011;11897;45.438;12.128;2023-04-24T03:22:14;8.43;;;3.77;;
23449;SDS011;11897;45.438;12.128;2023-04-24T03:24:42;6.67;;;3.73;;
23449;SDS011;11897;45.438;12.128;2023-04-24T03:27:10;8.90;;;4.37;;
23449;SDS011;11897;45.438;12.128;2023-04-24T03:29:59;8.43;;;4.77;;
23449;SDS011;11897;45.438;12.128;2023-04-24T03:32:34;6.43;;;4.23;;
23449;SDS011;11897;45.438;12.128;2023-04-24T03:35:01;9.90;;;3.90;;
23449;SDS011;11897;45.438;12.128;2023-04-24T03:37:29;7.10;;;4.07;;
23449;SDS011;11897;45.438;12.128;2023-04-24T03:40:14;8.23;;;3.93;;
23449;SDS011;11897;45.438;12.128;2023-04-24T03:42:41;7.77;;;3.67;;
23449;SDS011;11897;45.438;12.128;2023-04-24T03:45:08;5.93;;;3.70;;
23449;SDS011;11897;45.438;12.128;2023-04-24T03:47:38;6.93;;;4.17;;
23449;SDS011;11897;45.438;12.128;2023-04-24T03:50:05;9.50;;;3.83;;
23449;SDS011;11897;45.438;12.128;2023-04-24T03:52:33;7.27;;;4.00;;
23449;SDS011;11897;45.438;12.128;2023-04-24T03:55:00;8.17;;;4.33;;
23449;SDS011;11897;45.438;12.128;2023-04-24T03:57:31;7.07;;;4.00;;
23449;SDS011;11897;45.438;12.128;2023-04-24T04:00:11;8.17;;;3.93;;
23449;SDS011;11897;45.438;12.128;2023-04-24T04:02:45;6.87;;;4.13;;
23449;SDS011;11897;45.438;12.128;2023-04-24T04:05:11;5.33;;;3.13;;
23449;SDS011;11897;45.438;12.128;2023-04-24T04:07:38;5.57;;;3.47;;
23449;SDS011;11897;45.438;12.128;2023-04-24T04:10:05;12.07;;;4.17;;
23449;SDS011;11897;45.438;12.128;2023-04-24T04:12:36;6.73;;;4.17;;
23449;SDS011;11897;45.438;12.128;2023-04-24T04:15:03;7.40;;;4.53;;
23449;SDS011;11897;45.438;12.128;2023-04-24T04:17:31;8.43;;;4.70;;
23449;SDS011;11897;45.438;12.128;2023-04-24T04:19:59;9.87;;;3.10;;
23449;SDS011;11897;45.438;12.128;2023-04-24T04:22:26;10.03;;;4.50;;
23449;SDS011;11897;45.438;12.128;2023-04-24T04:24:53;6.17;;;3.93;;
23449;SDS011;11897;45.438;12.128;2023-04-24T04:27:22;6.93;;;3.57;;
23449;SDS011;11897;45.438;12.128;2023-04-24T04:29:59;7.73;;;4.33;;
23449;SDS011;11897;45.438;12.128;2023-04-24T04:32:30;12.70;;;5.13;;
23449;SDS011;11897;45.438;12.128;2023-04-24T04:34:56;9.03;;;5.67;;
23449;SDS011;11897;45.438;12.128;2023-04-24T04:37:25;9.30;;;5.50;;
23449;SDS011;11897;45.438;12.128;2023-04-24T04:40:26;7.50;;;4.63;;
23449;SDS011;11897;45.438;12.128;2023-04-24T04:42:58;9.63;;;4.60;;
23449;SDS011;11897;45.438;12.128;2023-04-24T04:45:30;16.00;;;5.33;;
23449;SDS011;11897;45.438;12.128;2023-04-24T04:48:27;9.03;;;5.07;;
23449;SDS011;11897;45.438;12.128;2023-04-24T04:50:55;10.43;;;5.40;;
23449;SDS011;11897;45.438;12.128;2023-04-24T04:53:22;15.33;;;5.60;;
23449;SDS011;11897;45.438;12.128;2023-04-24T04:55:49;8.80;;;4.57;;
23449;SDS011;11897;45.438;12.128;2023-04-24T04:58:18;9.57;;;4.33;;
23449;SDS011;11897;45.438;12.128;2023-04-24T05:00:49;9.07;;;5.33;;
23449;SDS011;11897;45.438;12.128;2023-04-24T05:03:23;8.20;;;4.90;;
23449;SDS011;11897;45.438;12.128;2023-04-24T05:05:57;9.03;;;5.03;;
23449;SDS011;11897;45.438;12.128;2023-04-24T05:08:24;8.37;;;4.70;;
23449;SDS011;11897;45.438;12.128;2023-04-24T05:10:51;9.97;;;4.97;;
23449;SDS011;11897;45.438;12.128;2023-04-24T05:13:18;10.70;;;5.17;;
23449;SDS011;11897;45.438;12.128;2023-04-24T05:15:45;8.27;;;4.80;;
23449;SDS011;11897;45.438;12.128;2023-04-24T05:18:15;8.50;;;4.77;;
23449;SDS011;11897;45.438;12.128;2023-04-24T05:20:42;15.03;;;5.87;;
23449;SDS011;11897;45.438;12.128;2023-04-24T05:23:09;7.70;;;4.57;;
23449;SDS011;11897;45.438;12.128;2023-04-24T05:25:39;18.23;;;5.17;;
23449;SDS011;11897;45.438;12.128;2023-04-24T05:28:10;8.60;;;5.57;;
23449;SDS011;11897;45.438;12.128;2023-04-24T05:30:37;10.60;;;5.57;;
23449;SDS011;11897;45.438;12.128;2023-04-24T05:33:05;13.60;;;4.93;;
23449;SDS011;11897;45.438;12.128;2023-04-24T05:35:35;8.40;;;4.80;;
23449;SDS011;11897;45.438;12.128;2023-04-24T05:38:02;8.23;;;4.37;;
23449;SDS011;11897;45.438;12.128;2023-04-24T05:40:29;9.07;;;5.07;;
23449;SDS011;11897;45.438;12.128;2023-04-24T05:42:55;12.03;;;5.50;;
23449;SDS011;11897;45.438;12.128;2023-04-24T05:45:23;7.03;;;4.50;;
23449;SDS011;11897;45.438;12.128;2023-04-24T05:47:50;12.30;;;5.93;;
23449;SDS011;11897;45.438;12.128;2023-04-24T05:50:17;13.17;;;5.40;;
23449;SDS011;11897;45.438;12.128;2023-04-24T05:52:47;11.03;;;4.63;;
23449;SDS011;11897;45.438;12.128;2023-04-24T05:55:23;10.93;;;5.37;;
23449;SDS011;11897;45.438;12.128;2023-04-24T05:57:50;10.87;;;5.07;;
23449;SDS011;11897;45.438;12.128;2023-04-24T06:00:17;10.63;;;5.80;;
23449;SDS011;11897;45.438;12.128;2023-04-24T06:02:51;13.43;;;5.93;;
23449;SDS011;11897;45.438;12.128;2023-04-24T06:05:19;11.03;;;6.33;;
23449;SDS011;11897;45.438;12.128;2023-04-24T06:07:47;9.93;;;5.77;;
23449;SDS011;11897;45.438;12.128;2023-04-24T06:10:14;8.87;;;5.70;;
23449;SDS011;11897;45.438;12.128;2023-04-24T06:12:43;9.40;;;5.33;;
23449;SDS011;11897;45.438;12.128;2023-04-24T06:15:15;13.47;;;6.87;;
23449;SDS011;11897;45.438;12.128;2023-04-24T06:17:55;10.03;;;6.10;;
23449;SDS011;11897;45.438;12.128;2023-04-24T06:20:22;12.20;;;6.50;;
23449;SDS011;11897;45.438;12.128;2023-04-24T06:22:50;11.00;;;5.97;;
23449;SDS011;11897;45.438;12.128;2023-04-24T06:25:17;12.00;;;5.97;;
23449;SDS011;11897;45.438;12.128;2023-04-24T06:27:44;13.17;;;6.30;;
23449;SDS011;11897;45.438;12.128;2023-04-24T06:30:11;11.40;;;5.07;;
23449;SDS011;11897;45.438;12.128;2023-04-24T06:32:37;7.80;;;4.77;;
23449;SDS011;11897;45.438;12.128;2023-04-24T06:35:04;8.30;;;4.67;;
23449;SDS011;11897;45.438;12.128;2023-04-24T06:37:32;6.77;;;4.10;;
23449;SDS011;11897;45.438;12.128;2023-04-24T06:40:00;9.73;;;5.40;;
23449;SDS011;11897;45.438;12.128;2023-04-24T06:42:27;6.43;;;3.83;;
23449;SDS011;11897;45.438;12.128;2023-04-24T06:44:54;8.20;;;4.67;;
23449;SDS011;11897;45.438;12.128;2023-04-24T06:47:21;6.80;;;4.30;;
23449;SDS011;11897;45.438;12.128;2023-04-24T06:49:48;6.30;;;3.83;;
23449;SDS011;11897;45.438;12.128;2023-04-24T06:52:16;4.33;;;3.30;;
23449;SDS011;11897;45.438;12.128;2023-04-24T06:54:42;6.13;;;4.10;;
23449;SDS011;11897;45.438;12.128;2023-04-24T06:57:10;5.50;;;3.67;;
23449;SDS011;11897;45.438;12.128;2023-04-24T06:59:37;5.60;;;3.53;;
23449;SDS011;11897;45.438;12.128;2023-04-24T07:02:04;6.80;;;3.63;;
23449;SDS011;11897;45.438;12.128;2023-04-24T07:04:31;5.87;;;4.03;;
23449;SDS011;11897;45.438;12.128;2023-04-24T07:06:58;5.40;;;3.20;;
23449;SDS011;11897;45.438;12.128;2023-04-24T07:09:25;4.50;;;3.17;;
23449;SDS011;11897;45.438;12.128;2023-04-24T07:11:52;8.07;;;3.50;;
23449;SDS011;11897;45.438;12.128;2023-04-24T07:14:20;6.20;;;3.40;;
23449;SDS011;11897;45.438;12.128;2023-04-24T07:16:47;6.53;;;3.40;;
23449;SDS011;11897;45.438;12.128;2023-04-24T07:19:13;6.87;;;3.53;;
23449;SDS011;11897;45.438;12.128;2023-04-24T07:21:40;7.37;;;3.37;;
23449;SDS011;11897;45.438;12.128;2023-04-24T07:24:07;6.33;;;3.37;;
23449;SDS011;11897;45.438;12.128;2023-04-24T07:26:36;5.47;;;3.47;;
23449;SDS011;11897;45.438;12.128;2023-04-24T07:29:03;4.53;;;3.03;;
23449;SDS011;11897;45.438;12.128;2023-04-24T07:31:31;5.97;;;2.80;;
23449;SDS011;11897;45.438;12.128;2023-04-24T07:33:58;6.57;;;3.53;;
23449;SDS011;11897;45.438;12.128;2023-04-24T07:36:24;6.73;;;3.20;;
23449;SDS011;11897;45.438;12.128;2023-04-24T07:38:52;5.13;;;3.23;;
23449;SDS011;11897;45.438;12.128;2023-04-24T07:41:18;6.90;;;3.23;;
23449;SDS011;11897;45.438;12.128;2023-04-24T07:43:45;6.97;;;2.97;;
23449;SDS011;11897;45.438;12.128;2023-04-24T07:46:12;4.60;;;2.77;;
23449;SDS011;11897;45.438;12.128;2023-04-24T07:48:40;4.83;;;3.50;;
23449;SDS011;11897;45.438;12.128;2023-04-24T07:51:07;3.13;;;2.60;;
23449;SDS011;11897;45.438;12.128;2023-04-24T07:53:35;2.97;;;2.37;;
23449;SDS011;11897;45.438;12.128;2023-04-24T07:56:01;5.20;;;2.30;;
23449;SDS011;11897;45.438;12.128;2023-04-24T07:58:28;3.67;;;2.67;;
23449;SDS011;11897;45.438;12.128;2023-04-24T08:00:56;3.23;;;2.03;;
23449;SDS011;11897;45.438;12.128;2023-04-24T08:03:23;3.90;;;2.73;;
23449;SDS011;11897;45.438;12.128;2023-04-24T08:05:51;6.43;;;2.40;;
23449;SDS011;11897;45.438;12.128;2023-04-24T08:08:19;2.70;;;2.10;;
23449;SDS011;11897;45.438;12.128;2023-04-24T08:10:46;3.73;;;2.57;;
23449;SDS011;11897;45.438;12.128;2023-04-24T08:13:13;3.53;;;2.20;;
23449;SDS011;11897;45.438;12.128;2023-04-24T08:15:39;3.70;;;2.20;;
23449;SDS011;11897;45.438;12.128;2023-04-24T08:18:06;2.77;;;2.10;;
23449;SDS011;11897;45.438;12.128;2023-04-24T08:20:33;2.30;;;1.67;;
23449;SDS011;11897;45.438;12.128;2023-04-24T08:23:01;4.47;;;2.07;;
23449;SDS011;11897;45.438;12.128;2023-04-24T08:25:28;2.00;;;1.77;;
23449;SDS011;11897;45.438;12.128;2023-04-24T08:27:55;2.97;;;1.80;;
23449;SDS011;11897;45.438;12.128;2023-04-24T08:30:21;2.47;;;1.63;;
23449;SDS011;11897;45.438;12.128;2023-04-24T08:32:48;2.57;;;1.73;;
23449;SDS011;11897;45.438;12.128;2023-04-24T08:35:15;5.70;;;1.97;;
23449;SDS011;11897;45.438;12.128;2023-04-24T08:37:41;1.83;;;1.57;;
23449;SDS011;11897;45.438;12.128;2023-04-24T08:40:14;3.10;;;1.50;;
23449;SDS011;11897;45.438;12.128;2023-04-24T08:42:41;1.13;;;1.03;;
23449;SDS011;11897;45.438;12.128;2023-04-24T08:45:09;1.87;;;1.23;;
23449;SDS011;11897;45.438;12.128;2023-04-24T08:47:36;3.53;;;1.87;;
23449;SDS011;11897;45.438;12.128;2023-04-24T08:50:04;2.70;;;1.70;;
23449;SDS011;11897;45.438;12.128;2023-04-24T08:52:32;1.77;;;1.30;;
23449;SDS011;11897;45.438;12.128;2023-04-24T08:54:59;2.53;;;1.60;;
23449;SDS011;11897;45.438;12.128;2023-04-24T08:57:27;2.07;;;1.87;;
23449;SDS011;11897;45.438;12.128;2023-04-24T08:59:54;3.07;;;2.13;;
23449;SDS011;11897;45.438;12.128;2023-04-24T09:02:22;4.10;;;1.90;;
23449;SDS011;11897;45.438;12.128;2023-04-24T09:04:49;2.83;;;1.87;;
23449;SDS011;11897;45.438;12.128;2023-04-24T09:07:16;3.50;;;2.13;;
23449;SDS011;11897;45.438;12.128;2023-04-24T09:09:43;2.43;;;1.67;;
23449;SDS011;11897;45.438;12.128;2023-04-24T09:12:10;3.67;;;1.97;;
23449;SDS011;11897;45.438;12.128;2023-04-24T09:14:39;1.67;;;1.00;;
23449;SDS011;11897;45.438;12.128;2023-04-24T09:17:10;1.10;;;0.93;;
23449;SDS011;11897;45.438;12.128;2023-04-24T09:19:36;1.57;;;1.00;;
23449;SDS011;11897;45.438;12.128;2023-04-24T09:22:06;1.70;;;0.60;;
23449;SDS011;11897;45.438;12.128;2023-04-24T09:24:33;0.73;;;0.67;;
23449;SDS011;11897;45.438;12.128;2023-04-24T09:27:00;0.80;;;0.80;;
23449;SDS011;11897;45.438;12.128;2023-04-24T09:29:27;0.87;;;0.70;;
23449;SDS011;11897;45.438;12.128;2023-04-24T09:31:56;0.83;;;0.70;;
23449;SDS011;11897;45.438;12.128;2023-04-24T09:34:22;0.67;;;0.60;;
23449;SDS011;11897;45.438;12.128;2023-04-24T09:36:49;1.07;;;0.67;;
23449;SDS011;11897;45.438;12.128;2023-04-24T09:39:16;0.83;;;0.63;;
23449;SDS011;11897;45.438;12.128;2023-04-24T09:41:45;0.90;;;0.80;;
23449;SDS011;11897;45.438;12.128;2023-04-24T09:44:13;0.90;;;0.70;;
23449;SDS011;11897;45.438;12.128;2023-04-24T09:46:41;1.37;;;0.77;;
23449;SDS011;11897;45.438;12.128;2023-04-24T09:49:09;1.87;;;0.97;;
23449;SDS011;11897;45.438;12.128;2023-04-24T09:51:37;1.23;;;1.10;;
23449;SDS011;11897;45.438;12.128;2023-04-24T09:54:04;0.70;;;0.70;;
23449;SDS011;11897;45.438;12.128;2023-04-24T09:56:37;11.20;;;1.00;;
23449;SDS011;11897;45.438;12.128;2023-04-24T09:59:08;1.47;;;0.97;;
23449;SDS011;11897;45.438;12.128;2023-04-24T10:01:34;2.13;;;0.80;;
23449;SDS011;11897;45.438;12.128;2023-04-24T10:04:03;1.10;;;0.87;;
23449;SDS011;11897;45.438;12.128;2023-04-24T10:06:33;1.87;;;1.10;;
23449;SDS011;11897;45.438;12.128;2023-04-24T10:09:01;1.60;;;0.90;;
23449;SDS011;11897;45.438;12.128;2023-04-24T10:11:28;1.13;;;0.70;;
23449;SDS011;11897;45.438;12.128;2023-04-24T10:13:56;1.93;;;1.33;;
23449;SDS011;11897;45.438;12.128;2023-04-24T10:16:23;1.10;;;1.00;;
23449;SDS011;11897;45.438;12.128;2023-04-24T10:18:49;0.90;;;0.83;;
23449;SDS011;11897;45.438;12.128;2023-04-24T10:21:16;1.20;;;1.00;;
23449;SDS011;11897;45.438;12.128;2023-04-24T10:23:44;1.17;;;0.80;;
23449;SDS011;11897;45.438;12.128;2023-04-24T10:26:12;2.00;;;1.20;;
23449;SDS011;11897;45.438;12.128;2023-04-24T10:28:43;0.70;;;0.70;;
23449;SDS011;11897;45.438;12.128;2023-04-24T10:31:10;1.77;;;0.93;;
23449;SDS011;11897;45.438;12.128;2023-04-24T10:33:38;1.97;;;1.07;;
23449;SDS011;11897;45.438;12.128;2023-04-24T10:36:06;2.60;;;1.23;;
23449;SDS011;11897;45.438;12.128;2023-04-24T10:38:34;1.20;;;1.10;;
23449;SDS011;11897;45.438;12.128;2023-04-24T10:41:09;1.50;;;1.30;;
23449;SDS011;11897;45.438;12.128;2023-04-24T10:43:41;1.37;;;1.20;;
23449;SDS011;11897;45.438;12.128;2023-04-24T10:46:08;2.00;;;1.37;;
23449;SDS011;11897;45.438;12.128;2023-04-24T10:48:42;1.40;;;1.07;;
23449;SDS011;11897;45.438;12.128;2023-04-24T10:51:11;1.60;;;1.30;;
23449;SDS011;11897;45.438;12.128;2023-04-24T10:53:38;1.90;;;1.17;;
23449;SDS011;11897;45.438;12.128;2023-04-24T10:56:05;1.40;;;1.23;;
23449;SDS011;11897;45.438;12.128;2023-04-24T10:58:37;2.27;;;1.47;;
23449;SDS011;11897;45.438;12.128;2023-04-24T11:01:05;2.13;;;1.73;;
23449;SDS011;11897;45.438;12.128;2023-04-24T11:03:34;7.57;;;2.00;;
23449;SDS011;11897;45.438;12.128;2023-04-24T11:06:01;1.20;;;1.10;;
23449;SDS011;11897;45.438;12.128;2023-04-24T11:08:29;2.73;;;1.10;;
23449;SDS011;11897;45.438;12.128;2023-04-24T11:10:58;1.30;;;1.17;;
23449;SDS011;11897;45.438;12.128;2023-04-24T11:13:25;2.13;;;1.27;;
23449;SDS011;11897;45.438;12.128;2023-04-24T11:18:39;1.40;;;1.20;;
23449;SDS011;11897;45.438;12.128;2023-04-24T11:21:10;2.03;;;1.47;;
23449;SDS011;11897;45.438;12.128;2023-04-24T11:23:36;0.90;;;0.80;;
23449;SDS011;11897;45.438;12.128;2023-04-24T11:26:09;1.20;;;0.67;;
23449;SDS011;11897;45.438;12.128;2023-04-24T11:28:36;1.00;;;0.77;;
23449;SDS011;11897;45.438;12.128;2023-04-24T11:33:46;0.50;;;0.50;;
23449;SDS011;11897;45.438;12.128;2023-04-24T11:36:12;0.60;;;0.40;;
23449;SDS011;11897;45.438;12.128;2023-04-24T11:38:39;0.40;;;0.40;;
23449;SDS011;11897;45.438;12.128;2023-04-24T11:41:06;0.60;;;0.30;;
23449;SDS011;11897;45.438;12.128;2023-04-24T11:43:33;0.60;;;0.40;;
23449;SDS011;11897;45.438;12.128;2023-04-24T11:46:00;0.50;;;0.47;;
23449;SDS011;11897;45.438;12.128;2023-04-24T11:48:26;0.57;;;0.40;;
23449;SDS011;11897;45.438;12.128;2023-04-24T11:50:55;0.57;;;0.57;;
23449;SDS011;11897;45.438;12.128;2023-04-24T11:53:22;6.43;;;0.40;;
23449;SDS011;11897;45.438;12.128;2023-04-24T11:55:49;1.60;;;0.57;;
23449;SDS011;11897;45.438;12.128;2023-04-24T11:58:16;1.33;;;0.37;;
23449;SDS011;11897;45.438;12.128;2023-04-24T12:00:54;0.10;;;0.10;;
23449;SDS011;11897;45.438;12.128;2023-04-24T12:03:21;0.27;;;0.27;;
23449;SDS011;11897;45.438;12.128;2023-04-24T12:05:48;0.67;;;0.30;;
23449;SDS011;11897;45.438;12.128;2023-04-24T12:08:27;0.40;;;0.40;;
23449;SDS011;11897;45.438;12.128;2023-04-24T12:10:54;0.90;;;0.40;;
23449;SDS011;11897;45.438;12.128;2023-04-24T12:13:21;0.57;;;0.50;;
23449;SDS011;11897;45.438;12.128;2023-04-24T12:15:48;0.80;;;0.40;;
23449;SDS011;11897;45.438;12.128;2023-04-24T12:18:16;0.70;;;0.30;;
23449;SDS011;11897;45.438;12.128;2023-04-24T12:20:43;0.87;;;0.53;;
23449;SDS011;11897;45.438;12.128;2023-04-24T12:23:10;0.47;;;0.30;;
23449;SDS011;11897;45.438;12.128;2023-04-24T12:25:38;0.53;;;0.50;;
23449;SDS011;11897;45.438;12.128;2023-04-24T12:28:09;0.20;;;0.20;;
23449;SDS011;11897;45.438;12.128;2023-04-24T12:30:39;0.30;;;0.27;;
23449;SDS011;11897;45.438;12.128;2023-04-24T12:33:05;0.20;;;0.20;;
23449;SDS011;11897;45.438;12.128;2023-04-24T12:35:32;0.50;;;0.30;;
23449;SDS011;11897;45.438;12.128;2023-04-24T12:38:06;0.20;;;0.20;;
23449;SDS011;11897;45.438;12.128;2023-04-24T12:40:40;0.30;;;0.20;;
23449;SDS011;11897;45.438;12.128;2023-04-24T12:43:13;0.30;;;0.30;;
23449;SDS011;11897;45.438;12.128;2023-04-24T12:45:40;0.53;;;0.27;;
23449;SDS011;11897;45.438;12.128;2023-04-24T12:48:06;0.13;;;0.13;;
23449;SDS011;11897;45.438;12.128;2023-04-24T12:50:35;0.20;;;0.20;;
23449;SDS011;11897;45.438;12.128;2023-04-24T12:53:02;0.30;;;0.30;;
23449;SDS011;11897;45.438;12.128;2023-04-24T12:55:29;0.37;;;0.23;;
23449;SDS011;11897;45.438;12.128;2023-04-24T12:57:57;0.30;;;0.30;;
23449;SDS011;11897;45.438;12.128;2023-04-24T13:00:25;0.03;;;0.03;;
23449;SDS011;11897;45.438;12.128;2023-04-24T13:02:52;0.00;;;0.00;;
23449;SDS011;11897;45.438;12.128;2023-04-24T13:05:19;0.10;;;0.10;;
23449;SDS011;11897;45.438;12.128;2023-04-24T13:07:46;0.00;;;0.00;;
23449;SDS011;11897;45.438;12.128;2023-04-24T13:10:12;1.70;;;1.00;;
23449;SDS011;11897;45.438;12.128;2023-04-24T13:12:39;0.77;;;0.33;;
23449;SDS011;11897;45.438;12.128;2023-04-24T13:15:08;0.13;;;0.10;;
23449;SDS011;11897;45.438;12.128;2023-04-24T13:17:35;0.10;;;0.10;;
23449;SDS011;11897;45.438;12.128;2023-04-24T13:20:01;0.08;;;0.08;;
23449;SDS011;11897;45.438;12.128;2023-04-24T13:22:28;0.00;;;0.00;;
23449;SDS011;11897;45.438;12.128;2023-04-24T13:24:55;0.52;;;0.50;;
23449;SDS011;11897;45.438;12.128;2023-04-24T13:27:22;3.40;;;0.95;;
23449;SDS011;11897;45.438;12.128;2023-04-24T13:29:49;0.57;;;0.20;;
23449;SDS011;11897;45.438;12.128;2023-04-24T13:32:17;0.50;;;0.30;;
23449;SDS011;11897;45.438;12.128;2023-04-24T13:34:44;0.40;;;0.20;;
23449;SDS011;11897;45.438;12.128;2023-04-24T13:37:11;2.90;;;1.13;;
23449;SDS011;11897;45.438;12.128;2023-04-24T13:39:37;3.53;;;2.25;;
23449;SDS011;11897;45.438;12.128;2023-04-24T13:42:04;0.57;;;0.33;;
23449;SDS011;11897;45.438;12.128;2023-04-24T13:44:31;0.00;;;0.00;;
23449;SDS011;11897;45.438;12.128;2023-04-24T13:46:57;0.00;;;0.00;;
23449;SDS011;11897;45.438;12.128;2023-04-24T13:49:26;0.30;;;0.10;;
23449;SDS011;11897;45.438;12.128;2023-04-24T13:51:53;0.00;;;0.00;;
23449;SDS011;11897;45.438;12.128;2023-04-24T13:54:20;0.50;;;0.20;;
23449;SDS011;11897;45.438;12.128;2023-04-24T13:56:48;0.07;;;0.07;;
23449;SDS011;11897;45.438;12.128;2023-04-24T13:59:15;0.20;;;0.20;;
23449;SDS011;11897;45.438;12.128;2023-04-24T14:01:41;0.00;;;0.00;;
23449;SDS011;11897;45.438;12.128;2023-04-24T14:04:10;0.10;;;0.10;;
23449;SDS011;11897;45.438;12.128;2023-04-24T14:06:38;0.40;;;0.20;;
23449;SDS011;11897;45.438;12.128;2023-04-24T14:09:05;0.10;;;0.10;;
23449;SDS011;11897;45.438;12.128;2023-04-24T14:11:33;0.00;;;0.00;;
23449;SDS011;11897;45.438;12.128;2023-04-24T14:13:59;0.10;;;0.10;;
23449;SDS011;11897;45.438;12.128;2023-04-24T14:16:29;0.10;;;0.10;;
23449;SDS011;11897;45.438;12.128;2023-04-24T14:18:56;0.40;;;0.17;;
23449;SDS011;11897;45.438;12.128;2023-04-24T14:21:23;0.10;;;0.10;;
23449;SDS011;11897;45.438;12.128;2023-04-24T14:23:51;0.10;;;0.10;;
23449;SDS011;11897;45.438;12.128;2023-04-24T14:26:18;0.17;;;0.10;;
23449;SDS011;11897;45.438;12.128;2023-04-24T14:28:45;0.30;;;0.20;;
23449;SDS011;11897;45.438;12.128;2023-04-24T14:31:12;0.17;;;0.10;;
23449;SDS011;11897;45.438;12.128;2023-04-24T14:33:38;0.10;;;0.10;;
23449;SDS011;11897;45.438;12.128;2023-04-24T14:36:05;0.00;;;0.00;;
23449;SDS011;11897;45.438;12.128;2023-04-24T14:38:32;0.83;;;0.10;;
23449;SDS011;11897;45.438;12.128;2023-04-24T14:41:00;0.10;;;0.10;;
23449;SDS011;11897;45.438;12.128;2023-04-24T14:43:32;0.10;;;0.10;;